Zell, South Dakota
Current Conditions -  °F | °C
As of 4:55 AM on Friday 24 Oct 2014 (Local Time) from KHON Reporting Station
Moderate Fog Moderate Fog  
Wind Chill: 33°   Ceiling: 100
Heat Index: 38°   Visibility: 0.25mi
Dew Point: 37°   Wind: 6mph
Humidity: 97%   Direction: 320°NW
Pressure: 29.83"   Gusts: NA
Location:  44.8619°N, 98.4743°W
Report Text: KHON 240955Z AUTO 32005KT 1/4SM FG VV001 03/03 A2983 RMK AO2 SLP103 T00330028 $
Loading
Personal Weather Stations






























Interactive Weather Map
Tropical Storm Tracking
New forecast layout! Learn more

10-Day Weather Forecast

Advertisements
Track Severe Weather on mobile